RORT(METAR)
06/25 14:00
RORT 250500Z 12004KT 9999 FEW020 FEW030 BKNXXX 29/26 Q1008 RMK
A2977=
戻る
トップページへ戻る
IMOC Co,.Ltd.